Portada
METAR-TAF:

METAR-TAF

Aeroports :

Manta, Equador

latitud: 00-57S, longitud: 080-41W, altitud: 13 m

Observació

L'informe es va fer fa 53 minuts, a les 15:00 UTC
Vent 4 kt del Oest
Temperatura 26°C
Humitat 84%
Pressió 1012 hPa
Visibilitat 10 km o més
Cel cobert a una alçada de 2000 ft

METAR: SEMT 091500Z 27004KT 9999 OVC020 26/23 Q1012 RMK A2990

Hora: 10:53 (15:53 UTC)

Pronòstic

L'informe es va fer fa 6 hores i 23 minuts, a les 09:30 UTC
Pronòstic vàlid del 09 a les 12 UTC al 10 a les 12 UTC
Vent 5 kt del Sud/Sud-Oest
Visibilitat 10 km o més
Cel ennuvolat a una alçada de 2000 ft
A partir de les 09 a les 1500 UTC
Vent 8 kt del Oest
Visibilitat 10 km o més
Núvols disperses a una alçada de 2300 ft
Evolucionant progressivament
l' 10 a les 00 UTC al 10 a les 02 UTC
Cel ennuvolat a una alçada de 2000 ft

TAF: SEMT 090930Z 0912/1012 21005KT 9999 BKN020 FM091500 27008KT 9999 SCT023 BECMG 1000/1002 BKN020 TX30/0920Z TN22/1010Z

Observacions i pronòstics meteorològics de més de 4000 aeroports (METAR i TAF).

Les estacions disponibles són els punts grocs i vermells al mapa.

Posi el ratolí al punt desitjat per veure el nom de l'estació.

Feu clic per veure les observacions i els pronòstics meteorològics.

Per canviar el mapa: feu clic els botons verds amb una creu de color negre per apropar; al botó verd amb un guió per allunyar la imatge; o en les fletxes verdes per a mapes adjacents.


METAR-TAF: